createdAt,value
2018-11-11T00:00:42.347Z,90.10
2018-11-11T00:03:11.664Z,89.70
2018-11-11T00:05:40.973Z,89.70
2018-11-11T00:08:10.243Z,89.60
2018-11-11T00:10:39.486Z,89.60
2018-11-11T00:13:08.740Z,89.60
2018-11-11T00:15:38.009Z,89.70
2018-11-11T00:18:07.359Z,89.60
2018-11-11T00:20:36.698Z,89.60
2018-11-11T00:23:05.981Z,89.70
2018-11-11T00:25:35.284Z,89.80
2018-11-11T00:28:04.595Z,89.80
2018-11-11T00:30:33.847Z,89.70
2018-11-11T00:33:03.116Z,89.80
2018-11-11T00:35:32.407Z,89.70
2018-11-11T00:38:01.683Z,89.70
2018-11-11T00:40:31.004Z,89.70
2018-11-11T00:43:00.335Z,89.80
2018-11-11T00:45:29.647Z,89.80
2018-11-11T00:47:58.911Z,89.80
2018-11-11T00:50:28.206Z,89.80
2018-11-11T00:52:57.526Z,89.90
2018-11-11T00:55:31.321Z,89.90
2018-11-11T00:58:00.592Z,90.00
2018-11-11T01:00:29.861Z,89.90
2018-11-11T01:02:59.194Z,89.90
2018-11-11T01:05:28.501Z,90.00
2018-11-11T01:07:57.791Z,90.00
2018-11-11T01:10:27.090Z,90.00
2018-11-11T01:12:56.379Z,90.00
2018-11-11T01:15:25.674Z,90.00
2018-11-11T01:17:54.957Z,90.00
2018-11-11T01:20:24.248Z,89.90
2018-11-11T01:22:53.517Z,90.00
2018-11-11T01:25:22.785Z,90.00
2018-11-11T01:27:52.070Z,90.00
2018-11-11T01:30:21.384Z,90.00
2018-11-11T01:32:50.671Z,90.00
2018-11-11T01:35:19.966Z,90.00
2018-11-11T01:37:49.239Z,90.00
2018-11-11T01:40:18.507Z,90.00
2018-11-11T01:42:47.803Z,90.00
2018-11-11T01:45:18.328Z,90.00
2018-11-11T01:47:48.325Z,90.00
2018-11-11T01:50:17.643Z,90.00
2018-11-11T01:52:46.941Z,90.00
2018-11-11T01:55:16.274Z,90.00
2018-11-11T01:57:45.540Z,90.00
2018-11-11T02:00:17.519Z,90.00
2018-11-11T02:02:47.658Z,90.00
2018-11-11T02:05:17.033Z,90.00
2018-11-11T02:07:47.142Z,90.00
2018-11-11T02:10:16.398Z,90.00
2018-11-11T02:12:46.543Z,90.00
2018-11-11T02:15:16.772Z,90.00
2018-11-11T02:17:47.874Z,90.00
2018-11-11T02:20:18.455Z,90.00
2018-11-11T02:22:48.766Z,90.00
2018-11-11T02:25:18.113Z,90.00
2018-11-11T02:27:47.671Z,90.00
2018-11-11T02:30:19.344Z,90.00
2018-11-11T02:32:48.678Z,90.00
2018-11-11T02:35:18.023Z,90.30
2018-11-11T02:37:47.334Z,90.00
2018-11-11T02:40:17.859Z,90.00
2018-11-11T02:42:47.560Z,90.00
2018-11-11T02:45:18.004Z,89.90
2018-11-11T02:47:47.271Z,89.90
2018-11-11T02:50:17.702Z,89.90
2018-11-11T02:52:47.427Z,90.00
2018-11-11T02:55:17.246Z,90.30
2018-11-11T02:57:47.089Z,89.90
2018-11-11T03:00:20.570Z,90.00
2018-11-11T03:02:50.172Z,90.00
2018-11-11T03:05:20.169Z,90.00
2018-11-11T03:07:49.423Z,90.00
2018-11-11T03:10:19.079Z,90.00
2018-11-11T03:12:50.733Z,90.00
2018-11-11T03:15:20.452Z,90.00
2018-11-11T03:17:49.846Z,90.00
2018-11-11T03:20:19.552Z,90.00
2018-11-11T03:22:48.977Z,90.00
2018-11-11T03:25:18.762Z,90.00
2018-11-11T03:27:48.191Z,90.00
2018-11-11T03:30:18.548Z,90.00
2018-11-11T03:32:48.760Z,90.00
2018-11-11T03:35:18.074Z,90.00
2018-11-11T03:37:47.624Z,90.00
2018-11-11T03:40:20.103Z,90.00
2018-11-11T03:42:50.110Z,90.00
2018-11-11T03:45:20.278Z,90.00
2018-11-11T03:47:50.649Z,90.00
2018-11-11T03:50:20.163Z,90.00
2018-11-11T03:52:49.510Z,90.00
2018-11-11T03:55:18.943Z,90.00
2018-11-11T03:57:48.236Z,90.00
2018-11-11T04:00:18.090Z,90.10
2018-11-11T04:02:47.407Z,90.10
2018-11-11T04:05:17.714Z,90.10
2018-11-11T04:07:47.018Z,90.10
2018-11-11T04:10:17.769Z,90.10
2018-11-11T04:12:47.443Z,90.10
2018-11-11T04:15:17.988Z,90.10
2018-11-11T04:17:47.776Z,90.10
2018-11-11T04:20:20.275Z,90.00
2018-11-11T04:22:49.605Z,90.10
2018-11-11T04:25:19.477Z,90.10
2018-11-11T04:27:48.747Z,90.10
2018-11-11T04:30:18.010Z,90.10
2018-11-11T04:32:47.333Z,90.10
2018-11-11T04:35:16.653Z,90.10
2018-11-11T04:37:45.942Z,90.10
2018-11-11T04:40:15.296Z,90.10
2018-11-11T04:42:44.616Z,90.10
2018-11-11T04:45:16.127Z,90.10
2018-11-11T04:47:46.340Z,90.10
2018-11-11T04:50:16.885Z,90.20
2018-11-11T04:52:46.760Z,90.10
2018-11-11T04:55:16.095Z,90.20
2018-11-11T04:57:45.372Z,90.20
2018-11-11T05:00:15.298Z,90.20
2018-11-11T05:02:44.619Z,90.20
2018-11-11T05:05:14.588Z,90.20
2018-11-11T05:07:43.870Z,90.20
2018-11-11T05:10:13.642Z,90.20
2018-11-11T05:12:43.002Z,90.20
2018-11-11T05:15:13.339Z,90.20
2018-11-11T05:17:42.850Z,90.20
2018-11-11T05:20:13.083Z,90.20
2018-11-11T05:22:42.984Z,90.20
2018-11-11T05:25:13.733Z,90.20
2018-11-11T05:27:43.510Z,90.20
2018-11-11T05:30:13.667Z,90.20
2018-11-11T05:32:42.933Z,90.20
2018-11-11T05:35:12.757Z,90.20
2018-11-11T05:37:42.667Z,90.20
2018-11-11T05:40:12.900Z,90.20
2018-11-11T05:42:43.021Z,90.20
2018-11-11T05:45:13.339Z,90.20
2018-11-11T05:47:43.040Z,90.20
2018-11-11T05:50:13.898Z,90.20
2018-11-11T05:52:44.101Z,90.20
2018-11-11T05:55:15.560Z,90.20
2018-11-11T05:57:44.847Z,90.20
2018-11-11T06:00:15.596Z,90.20
2018-11-11T06:02:45.312Z,90.60
2018-11-11T06:05:15.436Z,90.30
2018-11-11T06:07:44.725Z,90.20
2018-11-11T06:10:15.052Z,90.20
2018-11-11T06:12:44.342Z,90.20
2018-11-11T06:15:14.451Z,90.20
2018-11-11T06:17:43.735Z,90.20
2018-11-11T06:20:17.161Z,90.30
2018-11-11T06:22:46.477Z,90.20
2018-11-11T06:25:15.737Z,90.20
2018-11-11T06:27:45.011Z,90.20
2018-11-11T06:30:14.356Z,90.20
2018-11-11T06:32:43.679Z,90.20
2018-11-11T06:35:12.975Z,90.20
2018-11-11T06:37:42.446Z,90.20
2018-11-11T06:40:12.982Z,90.20
2018-11-11T06:42:42.482Z,90.20
2018-11-11T06:45:14.263Z,90.20
2018-11-11T06:51:21.866Z,90.00
2018-11-11T06:53:51.167Z,90.00
2018-11-11T06:56:20.463Z,90.00
2018-11-11T06:58:49.803Z,90.00
2018-11-11T07:01:19.128Z,90.00
2018-11-11T07:03:58.569Z,90.00
2018-11-11T07:06:28.416Z,90.00
2018-11-11T07:08:57.685Z,90.00
2018-11-11T07:11:26.935Z,90.00
2018-11-11T07:13:56.249Z,90.00
2018-11-11T07:16:26.063Z,89.90
2018-11-11T07:18:55.744Z,89.60
2018-11-11T07:21:25.051Z,89.40
2018-11-11T07:23:54.374Z,88.90
2018-11-11T07:26:23.669Z,89.20
2018-11-11T07:28:52.934Z,88.60
2018-11-11T07:31:22.207Z,88.20
2018-11-11T07:33:51.559Z,87.80
2018-11-11T07:36:20.846Z,88.50
2018-11-11T07:38:50.111Z,88.60
2018-11-11T07:41:19.371Z,88.60
2018-11-11T07:43:48.716Z,88.50
2018-11-11T07:46:18.078Z,87.80
2018-11-11T07:48:47.813Z,88.30
2018-11-11T07:51:17.110Z,88.50
2018-11-11T07:53:46.374Z,88.90
2018-11-11T07:56:15.661Z,88.70
2018-11-11T07:58:44.966Z,88.60
2018-11-11T08:01:14.253Z,88.70
2018-11-11T08:03:43.559Z,88.70
2018-11-11T08:06:13.220Z,88.50
2018-11-11T08:08:42.539Z,88.60
2018-11-11T08:11:22.760Z,88.50
2018-11-11T08:13:52.059Z,88.60
2018-11-11T08:16:21.344Z,88.40
2018-11-11T08:18:51.624Z,89.40
2018-11-11T08:21:21.610Z,88.40
2018-11-11T08:23:52.034Z,88.20
2018-11-11T08:26:21.811Z,87.10
2018-11-11T08:28:51.877Z,87.80
2018-11-11T08:31:21.796Z,88.00
2018-11-11T08:33:51.173Z,86.10
2018-11-11T08:36:22.295Z,86.20
2018-11-11T08:38:52.069Z,86.00
2018-11-11T08:41:21.426Z,86.50
2018-11-11T08:43:50.674Z,86.60
2018-11-11T08:46:19.972Z,86.70
2018-11-11T08:48:49.297Z,86.60
2018-11-11T08:51:18.688Z,86.50
2018-11-11T08:53:47.967Z,86.60
2018-11-11T08:56:17.286Z,86.60
2018-11-11T08:58:46.576Z,86.60
2018-11-11T09:01:15.926Z,86.70
2018-11-11T09:03:45.187Z,86.70
2018-11-11T09:06:14.502Z,86.70
2018-11-11T09:08:43.847Z,86.80
2018-11-11T09:11:13.135Z,86.90
2018-11-11T09:13:42.530Z,87.00
2018-11-11T09:16:11.867Z,87.10
2018-11-11T09:18:41.247Z,87.10
2018-11-11T09:21:10.626Z,87.10
2018-11-11T09:23:39.964Z,87.20
2018-11-11T09:26:09.311Z,87.20
2018-11-11T09:28:38.690Z,87.20
2018-11-11T09:31:08.089Z,87.30
2018-11-11T09:33:37.627Z,87.20
2018-11-11T09:36:08.415Z,87.20
2018-11-11T09:38:38.155Z,87.20
2018-11-11T09:41:08.835Z,87.40
2018-11-11T09:43:38.693Z,86.80
2018-11-11T09:46:08.348Z,86.60
2018-11-11T09:48:38.213Z,86.70
2018-11-11T09:51:07.920Z,86.60
2018-11-11T09:53:37.892Z,86.50
2018-11-11T09:56:07.804Z,86.20
2018-11-11T09:58:38.115Z,86.10
2018-11-11T10:01:08.124Z,86.30
2018-11-11T10:03:42.855Z,86.30
2018-11-11T10:11:16.391Z,86.00
2018-11-11T10:13:54.343Z,86.00
2018-11-11T10:17:29.715Z,84.00
2018-11-11T10:20:05.995Z,85.60
2018-11-11T10:24:44.291Z,85.90
2018-11-11T10:27:24.793Z,85.80
2018-11-11T10:30:10.646Z,85.80
2018-11-11T10:33:53.283Z,85.70
2018-11-11T10:36:28.915Z,85.70
2018-11-11T10:39:03.363Z,85.70
2018-11-11T10:42:36.953Z,85.90
2018-11-11T10:45:12.618Z,85.90
2018-11-11T10:47:46.899Z,86.00
2018-11-11T10:50:21.001Z,86.00
2018-11-11T10:52:51.066Z,86.20
2018-11-11T10:55:21.214Z,86.20
2018-11-11T10:57:51.266Z,86.20
2018-11-11T11:00:26.257Z,86.40
2018-11-11T11:02:57.575Z,86.40
2018-11-11T11:05:28.557Z,86.50
2018-11-11T11:07:58.628Z,86.60
2018-11-11T11:10:28.747Z,86.70
2018-11-11T11:12:58.802Z,86.80
2018-11-11T11:15:29.615Z,86.50
2018-11-11T11:17:59.687Z,86.70
2018-11-11T11:20:29.993Z,86.80
2018-11-11T11:23:00.142Z,86.80
2018-11-11T11:25:30.235Z,86.70
2018-11-11T11:28:00.287Z,86.50
2018-11-11T11:30:30.872Z,86.40
2018-11-11T11:33:00.940Z,83.80
2018-11-11T11:35:31.303Z,83.80
2018-11-11T11:38:01.642Z,84.60
2018-11-11T11:40:32.919Z,84.40
2018-11-11T11:43:03.186Z,84.90
2018-11-11T11:45:33.448Z,85.00
2018-11-11T11:48:03.522Z,84.90
2018-11-11T11:50:33.742Z,84.10
2018-11-11T11:53:03.883Z,84.30
2018-11-11T11:55:33.847Z,84.50
2018-11-11T11:58:15.669Z,84.20
2018-11-11T12:00:46.036Z,84.20
2018-11-11T12:03:16.506Z,84.20
2018-11-11T12:05:47.274Z,84.30
2018-11-11T12:08:19.528Z,84.30
2018-11-11T12:10:49.747Z,84.40
2018-11-11T12:13:20.139Z,84.50
2018-11-11T12:15:51.161Z,83.30
2018-11-11T12:18:21.233Z,84.20
2018-11-11T12:20:51.287Z,85.00
2018-11-11T12:23:21.470Z,84.70
2018-11-11T12:25:51.491Z,84.70
2018-11-11T12:28:21.538Z,84.60
2018-11-11T12:30:51.667Z,84.70
2018-11-11T12:33:21.687Z,84.60
2018-11-11T12:35:51.734Z,84.70
2018-11-11T12:38:21.756Z,84.60
2018-11-11T12:40:51.815Z,84.60
2018-11-11T12:43:21.887Z,84.50
2018-11-11T12:45:51.924Z,84.70
2018-11-11T12:48:22.023Z,84.80
2018-11-11T12:50:52.075Z,84.60
2018-11-11T12:53:22.169Z,84.50
2018-11-11T12:55:52.356Z,84.60
2018-11-11T12:58:22.429Z,84.50
2018-11-11T13:00:52.511Z,84.50
2018-11-11T13:03:22.588Z,84.30
2018-11-11T13:05:52.688Z,84.40
2018-11-11T13:08:22.870Z,84.40
2018-11-11T13:10:52.905Z,84.40
2018-11-11T13:13:22.959Z,84.50
2018-11-11T13:15:52.960Z,84.80
2018-11-11T13:18:22.987Z,85.10
2018-11-11T13:20:53.681Z,85.60
2018-11-11T13:23:23.682Z,85.40
2018-11-11T13:25:53.669Z,85.50
2018-11-11T13:28:24.681Z,85.20
2018-11-11T13:30:54.697Z,85.80
2018-11-11T13:33:24.661Z,85.70
2018-11-11T13:35:54.607Z,85.70
2018-11-11T13:38:24.519Z,85.70
2018-11-11T13:40:54.458Z,85.70
2018-11-11T13:43:24.503Z,85.60
2018-11-11T13:45:54.418Z,85.60
2018-11-11T13:48:24.446Z,85.50
2018-11-11T13:50:54.195Z,85.40
2018-11-11T13:53:24.220Z,85.30
2018-11-11T13:55:55.489Z,85.20
2018-11-11T13:58:27.119Z,85.00
2018-11-11T14:00:57.731Z,85.00
2018-11-11T14:03:27.801Z,84.90
2018-11-11T14:05:58.472Z,84.70
2018-11-11T14:08:29.677Z,84.80
2018-11-11T14:11:00.631Z,84.80
2018-11-11T14:13:30.723Z,84.90
2018-11-11T14:16:00.811Z,85.10
2018-11-11T14:18:30.905Z,85.10
2018-11-11T14:21:01.016Z,85.30
2018-11-11T14:23:31.100Z,85.30
2018-11-11T14:26:01.278Z,85.40
2018-11-11T14:28:31.304Z,85.60
2018-11-11T14:31:01.424Z,85.60
2018-11-11T14:33:31.523Z,85.70
2018-11-11T14:36:01.724Z,85.70
2018-11-11T14:38:31.911Z,85.80
2018-11-11T14:41:01.998Z,86.60
2018-11-11T14:43:32.048Z,85.90
2018-11-11T14:46:02.286Z,86.00
2018-11-11T14:48:32.324Z,86.00
2018-11-11T14:51:02.439Z,86.00
2018-11-11T14:53:32.531Z,86.00
2018-11-11T14:56:02.624Z,86.10
2018-11-11T14:58:32.762Z,86.20
2018-11-11T15:01:02.847Z,87.10
2018-11-11T15:03:32.975Z,86.30
2018-11-11T15:06:03.092Z,86.30
2018-11-11T15:08:33.151Z,86.10
2018-11-11T15:11:03.265Z,86.20
2018-11-11T15:13:34.303Z,86.20
2018-11-11T15:16:04.398Z,86.70
2018-11-11T15:18:35.078Z,87.50
2018-11-11T15:21:05.353Z,86.80
2018-11-11T15:23:35.478Z,86.80
2018-11-11T15:26:06.123Z,86.80
2018-11-11T15:28:36.291Z,86.90
2018-11-11T15:31:06.784Z,86.90
2018-11-11T15:33:37.031Z,86.90
2018-11-11T15:36:07.588Z,87.10
2018-11-11T15:38:37.651Z,87.30
2018-11-11T15:41:07.830Z,87.10
2018-11-11T15:43:37.913Z,87.20
2018-11-11T15:46:08.051Z,88.00
2018-11-11T15:48:38.207Z,87.50
2018-11-11T15:51:07.832Z,87.40
2018-11-11T15:53:37.878Z,87.30
2018-11-11T15:56:07.971Z,87.30
2018-11-11T15:58:38.595Z,87.80
2018-11-11T16:01:08.677Z,87.50
2018-11-11T16:03:38.877Z,87.50
2018-11-11T16:06:09.014Z,87.60
2018-11-11T16:08:39.128Z,87.60
2018-11-11T16:11:09.260Z,87.60
2018-11-11T16:13:39.399Z,87.70
2018-11-11T16:16:09.534Z,87.70
2018-11-11T16:18:39.707Z,87.70
2018-11-11T16:21:09.756Z,87.80
2018-11-11T16:23:39.907Z,87.90
2018-11-11T16:26:10.071Z,87.90
2018-11-11T16:28:40.163Z,87.80
2018-11-11T16:31:10.307Z,87.80
2018-11-11T16:33:40.440Z,87.80
2018-11-11T16:36:11.024Z,88.00
2018-11-11T16:38:41.135Z,87.90
2018-11-11T16:41:12.456Z,88.00
2018-11-11T16:43:42.372Z,88.00
2018-11-11T16:46:12.488Z,87.70
2018-11-11T16:48:42.610Z,88.10
2018-11-11T16:51:12.746Z,88.00
2018-11-11T16:53:43.859Z,88.00
2018-11-11T16:56:13.967Z,88.00
2018-11-11T16:58:44.059Z,88.30
2018-11-11T17:01:14.167Z,88.30
2018-11-11T17:03:44.369Z,88.40
2018-11-11T17:06:14.492Z,88.50
2018-11-11T17:08:44.590Z,88.60
2018-11-11T17:11:14.727Z,88.50
2018-11-11T17:13:45.837Z,88.60
2018-11-11T17:16:15.934Z,88.50
2018-11-11T17:18:46.022Z,88.40
2018-11-11T17:21:17.177Z,88.60
2018-11-11T17:23:47.277Z,88.60
2018-11-11T17:26:18.061Z,88.50
2018-11-11T17:28:53.975Z,88.50
2018-11-11T17:31:25.711Z,88.50
2018-11-11T17:33:55.813Z,88.50
2018-11-11T17:36:25.952Z,88.50
2018-11-11T17:38:56.729Z,88.60
2018-11-11T17:41:26.865Z,88.60
2018-11-11T17:43:56.989Z,88.50
2018-11-11T17:46:27.134Z,88.70
2018-11-11T17:48:57.249Z,88.60
2018-11-11T17:51:27.420Z,88.70
2018-11-11T17:53:58.432Z,88.70
2018-11-11T17:56:29.010Z,88.80
2018-11-11T17:59:00.060Z,88.70
2018-11-11T18:01:30.222Z,88.80
2018-11-11T18:04:00.343Z,88.80
2018-11-11T18:06:32.384Z,88.80
2018-11-11T18:09:02.925Z,88.90
2018-11-11T18:11:33.446Z,88.90
2018-11-11T18:14:03.855Z,88.90
2018-11-11T18:16:35.128Z,88.80
2018-11-11T18:19:05.566Z,88.50
2018-11-11T18:21:36.406Z,88.80
2018-11-11T18:24:07.909Z,88.90
2018-11-11T18:26:38.042Z,88.90
2018-11-11T18:29:08.193Z,88.90
2018-11-11T18:31:38.358Z,88.90
2018-11-11T18:34:09.548Z,89.00
2018-11-11T18:36:39.970Z,89.10
2018-11-11T18:39:13.430Z,88.90
2018-11-11T18:41:44.271Z,89.20
2018-11-11T18:44:15.167Z,89.20
2018-11-11T18:46:46.239Z,89.10
2018-11-11T18:49:21.810Z,89.20
2018-11-11T18:51:52.893Z,89.90
2018-11-11T18:54:24.012Z,89.20
2018-11-11T18:56:55.965Z,89.20
2018-11-11T18:59:27.747Z,89.20
2018-11-11T19:01:59.035Z,89.20
2018-11-11T19:04:30.590Z,89.40
2018-11-11T19:07:02.093Z,89.20
2018-11-11T19:09:32.863Z,89.30
2018-11-11T19:14:53.659Z,89.40
2018-11-11T19:17:25.239Z,89.30
2018-11-11T19:19:56.235Z,89.40
2018-11-11T19:22:26.875Z,89.40
2018-11-11T19:24:57.640Z,89.40
2018-11-11T19:27:28.674Z,89.40
2018-11-11T19:29:59.060Z,89.50
2018-11-11T19:32:30.771Z,89.40
2018-11-11T19:35:01.905Z,89.50
2018-11-11T19:37:32.568Z,89.40
2018-11-11T19:40:02.695Z,89.40
2018-11-11T19:42:33.189Z,89.50
2018-11-11T19:45:03.592Z,89.60
2018-11-11T19:47:35.108Z,89.60
2018-11-11T19:50:06.396Z,89.50
2018-11-11T19:52:40.604Z,89.60
2018-11-11T19:55:11.996Z,89.50
2018-11-11T19:57:42.483Z,89.60
2018-11-11T20:00:18.752Z,89.60
2018-11-11T20:02:50.435Z,89.50
2018-11-11T20:05:21.839Z,89.60
2018-11-11T20:07:53.286Z,89.60
2018-11-11T20:10:25.233Z,89.60
2018-11-11T20:12:55.405Z,89.60
2018-11-11T20:15:28.955Z,89.50
2018-11-11T20:17:59.122Z,89.60
2018-11-11T20:20:33.729Z,89.40
2018-11-11T20:23:03.919Z,89.50
2018-11-11T20:25:34.278Z,89.50
2018-11-11T20:28:05.507Z,89.60
2018-11-11T20:30:37.264Z,89.60
2018-11-11T20:33:08.077Z,89.60
2018-11-11T20:35:38.271Z,90.10
2018-11-11T20:38:08.378Z,89.60
2018-11-11T20:40:40.077Z,89.60
2018-11-11T20:43:10.245Z,89.50
2018-11-11T20:45:40.344Z,89.60
2018-11-11T20:48:10.453Z,89.60
2018-11-11T20:50:40.585Z,89.60
2018-11-11T20:53:10.723Z,89.50
2018-11-11T20:55:40.861Z,89.50
2018-11-11T20:58:10.971Z,89.40
2018-11-11T21:00:41.079Z,89.40
2018-11-11T21:03:11.175Z,89.40
2018-11-11T21:05:41.308Z,89.30
2018-11-11T21:08:11.399Z,89.20
2018-11-11T21:10:41.539Z,89.20
2018-11-11T21:13:11.650Z,89.20
2018-11-11T21:15:41.744Z,89.20
2018-11-11T21:18:11.831Z,89.10
2018-11-11T21:20:41.963Z,89.10
2018-11-11T21:23:12.061Z,89.10
2018-11-11T21:25:42.135Z,89.20
2018-11-11T21:28:12.176Z,89.10
2018-11-11T21:30:42.225Z,89.10
2018-11-11T21:33:12.305Z,89.20
2018-11-11T21:35:42.424Z,89.20
2018-11-11T21:38:12.571Z,89.20
2018-11-11T21:40:42.650Z,89.20
2018-11-11T21:43:12.831Z,89.20
2018-11-11T21:45:42.909Z,89.30
2018-11-11T21:48:13.043Z,89.20
2018-11-11T21:50:43.115Z,89.20
2018-11-11T21:53:43.567Z,89.20
2018-11-11T21:56:13.673Z,89.20
2018-11-11T21:58:43.780Z,89.40
2018-11-11T22:01:14.466Z,89.30
2018-11-11T22:03:44.531Z,89.30
2018-11-11T22:06:14.555Z,89.20
2018-11-11T22:08:44.607Z,89.30
2018-11-11T22:11:14.686Z,89.30
2018-11-11T22:13:44.706Z,89.20
2018-11-11T22:16:14.682Z,89.20
2018-11-11T22:18:44.578Z,89.20
2018-11-11T22:21:14.564Z,89.20
2018-11-11T22:23:44.496Z,89.20
2018-11-11T22:26:14.391Z,89.30
2018-11-11T22:28:44.296Z,89.20
2018-11-11T22:31:13.627Z,89.30
2018-11-11T22:33:43.004Z,89.30
2018-11-11T22:36:12.379Z,89.40
2018-11-11T22:38:41.624Z,89.30
2018-11-11T22:41:10.943Z,89.40
2018-11-11T22:43:40.263Z,89.40
2018-11-11T22:46:09.562Z,89.60
2018-11-11T22:48:38.865Z,89.40
2018-11-11T22:51:08.171Z,89.40
2018-11-11T22:53:37.456Z,89.50
2018-11-11T22:56:06.814Z,89.50
2018-11-11T22:58:36.139Z,89.50
2018-11-11T23:01:10.836Z,89.60
2018-11-11T23:03:40.112Z,90.10
2018-11-11T23:06:09.431Z,89.60
2018-11-11T23:08:38.750Z,89.60
2018-11-11T23:11:08.063Z,89.60
2018-11-11T23:13:37.365Z,89.60
2018-11-11T23:16:06.777Z,89.70
2018-11-11T23:18:36.031Z,89.70
2018-11-11T23:21:05.390Z,89.70
2018-11-11T23:23:34.715Z,89.80
2018-11-11T23:26:03.996Z,89.70
2018-11-11T23:28:33.375Z,89.80
2018-11-11T23:31:02.575Z,89.70
2018-11-11T23:49:00.191Z,89.70
2018-11-11T23:51:29.488Z,89.90
2018-11-11T23:53:58.771Z,90.00
2018-11-11T23:56:28.039Z,90.00
2018-11-11T23:58:57.549Z,90.00
